Time;durP1;ratioP1;P1;durP2;ratioP2;P2;SDS_P1;SDS_P2;PMS_P1;PMS_P2;Temp;Humidity;BMP_temperature;BMP_pressure;BME280_temperature;BME280_humidity;BME280_pressure;Samples;Min_cycle;Max_cycle;Signal;HPM_P1;HPM_P2
2022/03/14 00:00:22;;;;;;;11.25;9.18;;;8.40;74.40;;;;;;5030206;28;20095;-72
2022/03/14 00:02:48;;;;;;;18.58;10.07;;;8.50;74.50;;;;;;5030813;28;20133;-71
2022/03/14 00:05:17;;;;;;;11.57;9.02;;;8.50;74.50;;;;;;5030367;28;20076;-71
2022/03/14 00:07:47;;;;;;;13.23;9.05;;;8.50;74.60;;;;;;5029818;28;20049;-72
2022/03/14 00:10:15;;;;;;;13.27;9.15;;;8.50;74.80;;;;;;5029502;28;20140;-71
2022/03/14 00:12:48;;;;;;;15.25;10.10;;;8.50;75.10;;;;;;5046309;28;20041;-72
2022/03/14 00:15:15;;;;;;;13.13;9.77;;;8.40;75.50;;;;;;5042590;28;20442;-72
2022/03/14 00:17:43;;;;;;;12.48;9.25;;;8.30;76.30;;;;;;5029030;28;20053;-72
2022/03/14 00:20:12;;;;;;;13.18;10.30;;;8.20;76.70;;;;;;5030229;28;20446;-71
2022/03/14 00:22:38;;;;;;;12.25;9.82;;;8.10;77.50;;;;;;5030532;28;20056;-71
2022/03/14 00:25:09;;;;;;;14.65;9.98;;;8.00;78.00;;;;;;5029601;28;20488;-71
2022/03/14 00:27:35;;;;;;;14.68;10.05;;;8.00;79.00;;;;;;5029514;28;20045;-72
2022/03/14 00:30:04;;;;;;;13.27;9.98;;;7.90;79.90;;;;;;5030488;28;20041;-72
2022/03/14 00:32:30;;;;;;;13.48;9.80;;;7.80;81.50;;;;;;5029436;28;20522;-72
2022/03/14 00:34:56;;;;;;;13.70;9.90;;;7.80;82.20;;;;;;5030931;28;20041;-72
2022/03/14 00:37:22;;;;;;;13.45;9.95;;;7.70;83.60;;;;;;5029052;28;20128;-72
2022/03/14 00:39:47;;;;;;;15.45;10.85;;;7.60;85.90;;;;;;5030829;28;20156;-72
2022/03/14 00:42:14;;;;;;;13.93;10.93;;;7.50;86.50;;;;;;5031021;28;20061;-72
2022/03/14 00:44:41;;;;;;;14.35;10.55;;;7.50;88.90;;;;;;5029888;28;20103;-72
2022/03/14 00:47:07;;;;;;;19.30;10.65;;;7.40;90.20;;;;;;5030937;28;20091;-72
2022/03/14 00:49:34;;;;;;;16.08;11.35;;;7.40;91.10;;;;;;5029474;28;20037;-72
2022/03/14 00:52:00;;;;;;;13.02;10.32;;;7.30;92.40;;;;;;5028740;28;20092;-72
2022/03/14 00:54:25;;;;;;;14.00;10.80;;;7.30;93.40;;;;;;5029633;28;20045;-72
2022/03/14 00:56:51;;;;;;;16.60;11.80;;;7.30;94.00;;;;;;5029734;28;20087;-71
2022/03/14 00:59:17;;;;;;;15.73;10.90;;;7.30;95.20;;;;;;5028725;28;20049;-71
2022/03/14 01:01:43;;;;;;;12.98;9.63;;;7.30;95.80;;;;;;5030093;28;20049;-72
2022/03/14 01:04:09;;;;;;;13.75;10.55;;;7.40;96.50;;;;;;5029381;28;20060;-71
2022/03/14 01:06:35;;;;;;;16.75;10.40;;;7.40;97.40;;;;;;5027818;28;20058;-72
2022/03/14 01:09:00;;;;;;;23.33;10.68;;;7.40;98.60;;;;;;5029331;28;20048;-72
2022/03/14 01:11:26;;;;;;;16.88;11.50;;;7.50;99.10;;;;;;5030507;28;20081;-72
2022/03/14 01:13:52;;;;;;;23.63;11.05;;;7.50;99.50;;;;;;5029927;28;20053;-72
2022/03/14 01:16:18;;;;;;;16.63;11.82;;;7.50;99.90;;;;;;5032560;28;20087;-71
2022/03/14 01:18:43;;;;;;;16.23;11.55;;;7.60;99.90;;;;;;5045060;28;20142;-71
2022/03/14 01:21:09;;;;;;;14.40;10.13;;;7.60;99.90;;;;;;5039712;28;20551;-71
2022/03/14 01:23:34;;;;;;;15.18;10.77;;;7.60;99.90;;;;;;5038696;28;20064;-71
2022/03/14 01:26:00;;;;;;;14.30;10.93;;;7.60;99.90;;;;;;5043235;28;20148;-71
2022/03/14 01:28:26;;;;;;;12.60;10.23;;;7.70;99.90;;;;;;5041421;28;20484;-71
2022/03/14 01:30:51;;;;;;;15.73;11.32;;;7.70;99.90;;;;;;5036395;28;20410;-71
2022/03/14 01:33:17;;;;;;;13.85;11.30;;;7.80;99.90;;;;;;5052023;28;20087;-72
2022/03/14 01:35:42;;;;;;;16.00;12.00;;;7.80;99.90;;;;;;5054117;28;20053;-72
2022/03/14 01:38:09;;;;;;;16.45;11.60;;;7.80;99.90;;;;;;5046045;28;20268;-72
2022/03/14 01:40:35;;;;;;;16.23;11.10;;;7.80;99.90;;;;;;5032303;28;20516;-71
2022/03/14 01:43:00;;;;;;;13.40;10.75;;;7.80;99.90;;;;;;5033146;28;20041;-71
2022/03/14 01:45:26;;;;;;;12.35;9.75;;;8.40;99.90;;;;;;5033870;28;20487;-71
2022/03/14 01:47:52;;;;;;;15.35;11.38;;;7.90;99.90;;;;;;5033365;28;20085;-71
2022/03/14 01:50:18;;;;;;;13.85;10.63;;;7.90;99.90;;;;;;5032677;28;20056;-72
2022/03/14 01:52:45;;;;;;;16.67;11.68;;;7.90;99.90;;;;;;5032647;28;20053;-72
2022/03/14 01:55:13;;;;;;;13.73;10.70;;;7.90;99.90;;;;;;5033350;28;20553;-71
2022/03/14 01:57:39;;;;;;;14.40;11.88;;;7.90;99.90;;;;;;5033608;28;20505;-72
2022/03/14 02:00:08;;;;;;;18.27;10.98;;;7.90;99.90;;;;;;5032658;28;20037;-71
2022/03/14 02:02:34;;;;;;;14.63;10.10;;;8.00;99.90;;;;;;5031542;28;20045;-71
2022/03/14 02:04:59;;;;;;;13.02;10.15;;;8.00;99.90;;;;;;5032570;28;20077;-72
2022/03/14 02:07:26;;;;;;;15.13;11.07;;;8.00;99.90;;;;;;5031981;28;20046;-72
2022/03/14 02:09:51;;;;;;;11.88;10.10;;;8.00;99.90;;;;;;5031905;28;20041;-71
2022/03/14 02:12:18;;;;;;;14.25;11.43;;;8.00;99.90;;;;;;5032679;28;20537;-71
2022/03/14 02:14:44;;;;;;;19.05;11.38;;;8.00;99.90;;;;;;5033271;28;20059;-72
2022/03/14 02:17:13;;;;;;;13.70;10.93;;;8.00;99.90;;;;;;5031512;28;20136;-72
2022/03/14 02:19:40;;;;;;;13.55;9.77;;;8.00;99.90;;;;;;5031835;28;20102;-72
2022/03/14 02:22:13;;;;;;;12.48;9.77;;;8.00;99.90;;;;;;5031765;28;20053;-72
2022/03/14 02:24:43;;;;;;;14.35;10.98;;;8.00;99.90;;;;;;5031435;28;20053;-72
2022/03/14 02:27:09;;;;;;;15.27;10.80;;;8.10;99.90;;;;;;5033538;28;20537;-72
2022/03/14 02:29:34;;;;;;;14.02;10.13;;;8.00;99.90;;;;;;5032426;28;20144;-72
2022/03/14 02:32:00;;;;;;;15.05;11.90;;;8.00;99.90;;;;;;5032023;28;20099;-71
2022/03/14 02:34:26;;;;;;;13.90;10.00;;;8.10;99.90;;;;;;5032012;28;20064;-72
2022/03/14 02:36:51;;;;;;;15.85;10.45;;;8.10;99.90;;;;;;5031209;28;20041;-71
2022/03/14 02:39:17;;;;;;;14.55;11.23;;;8.10;99.90;;;;;;5033270;28;20514;-72
2022/03/14 02:41:43;;;;;;;12.45;9.95;;;8.10;99.90;;;;;;5032881;28;20524;-71
2022/03/14 02:44:09;;;;;;;16.45;10.80;;;8.10;99.90;;;;;;5032320;28;20052;-71
2022/03/14 02:46:37;;;;;;;19.50;11.43;;;8.10;99.90;;;;;;5031284;28;20053;-72
2022/03/14 02:49:07;;;;;;;12.18;10.07;;;8.10;99.90;;;;;;5045514;28;20480;-72
2022/03/14 02:51:38;;;;;;;11.70;9.82;;;8.10;99.90;;;;;;5047299;28;20045;-72
2022/03/14 02:54:10;;;;;;;14.63;10.27;;;8.20;99.90;;;;;;5048444;28;20065;-72
2022/03/14 02:56:37;;;;;;;16.08;10.50;;;8.20;99.90;;;;;;5031496;28;20045;-71
2022/03/14 02:59:04;;;;;;;13.00;9.73;;;8.20;99.90;;;;;;5043283;28;20671;-72
2022/03/14 03:01:29;;;;;;;14.30;9.48;;;8.20;99.90;;;;;;5052560;28;20048;-72
2022/03/14 03:03:55;;;;;;;14.20;9.73;;;8.20;99.90;;;;;;5051559;28;20048;-72
2022/03/14 03:06:22;;;;;;;12.40;8.82;;;8.20;99.90;;;;;;5050443;28;20045;-72
2022/03/14 03:08:52;;;;;;;13.50;10.07;;;8.20;99.90;;;;;;5052363;28;20463;-72
2022/03/14 03:11:19;;;;;;;12.10;10.13;;;8.20;99.90;;;;;;5050801;28;20059;-72
2022/03/14 03:13:47;;;;;;;10.13;8.65;;;8.20;99.90;;;;;;5050898;28;20132;-72
2022/03/14 03:16:14;;;;;;;12.13;9.50;;;8.30;99.90;;;;;;5051048;28;20123;-72
2022/03/14 03:18:39;;;;;;;11.15;8.98;;;8.30;99.90;;;;;;5049978;28;20045;-72
2022/03/14 03:21:05;;;;;;;12.15;9.95;;;8.30;99.90;;;;;;5051330;28;20053;-71
2022/03/14 03:23:33;;;;;;;10.52;9.23;;;8.30;99.90;;;;;;5046438;28;20480;-71
2022/03/14 03:25:58;;;;;;;11.57;9.70;;;8.30;99.90;;;;;;5043762;28;20392;-72
2022/03/14 03:28:24;;;;;;;13.18;9.73;;;8.30;99.90;;;;;;5048812;28;20047;-72
2022/03/14 03:30:50;;;;;;;13.13;9.40;;;8.30;99.90;;;;;;5051073;28;20479;-72
2022/03/14 03:33:16;;;;;;;12.77;9.13;;;8.30;99.90;;;;;;5051411;28;20437;-72
2022/03/14 03:35:41;;;;;;;12.70;9.43;;;8.30;99.90;;;;;;5031198;28;20049;-72
2022/03/14 03:38:07;;;;;;;11.82;9.43;;;8.30;99.90;;;;;;5030579;28;20041;-72
2022/03/14 03:40:33;;;;;;;10.80;9.13;;;8.30;99.90;;;;;;5031297;28;20038;-72
2022/03/14 03:42:58;;;;;;;10.50;8.82;;;8.30;99.90;;;;;;5030688;28;20499;-72
2022/03/14 03:45:24;;;;;;;12.68;9.70;;;8.30;99.90;;;;;;5031726;28;20395;-72
2022/03/14 03:47:50;;;;;;;13.38;8.98;;;8.30;99.90;;;;;;5029246;28;20085;-71
2022/03/14 03:50:19;;;;;;;11.73;8.05;;;8.30;99.90;;;;;;5030590;28;20156;-72
2022/03/14 03:52:44;;;;;;;12.93;9.30;;;8.30;99.90;;;;;;5031363;28;20095;-72
2022/03/14 03:55:10;;;;;;;16.35;10.07;;;8.30;99.90;;;;;;5029800;28;20420;-72
2022/03/14 03:57:36;;;;;;;14.73;9.23;;;8.30;99.90;;;;;;5030386;28;20088;-72
2022/03/14 04:00:07;;;;;;;12.20;9.25;;;8.30;99.90;;;;;;5034396;28;20046;-72
2022/03/14 04:02:36;;;;;;;11.00;9.65;;;8.30;99.90;;;;;;5047243;28;20047;-72
2022/03/14 04:05:04;;;;;;;10.77;8.02;;;8.30;99.90;;;;;;5033217;28;20053;-72
2022/03/14 04:07:31;;;;;;;9.25;8.30;;;8.30;99.90;;;;;;5034841;28;20062;-72
2022/03/14 04:09:57;;;;;;;11.38;9.15;;;8.30;99.90;;;;;;5029935;28;20085;-72
2022/03/14 04:12:24;;;;;;;11.20;8.68;;;8.30;99.90;;;;;;5029982;28;20069;-72
2022/03/14 04:14:51;;;;;;;12.90;8.82;;;8.30;99.90;;;;;;5030622;28;20087;-72
2022/03/14 04:17:18;;;;;;;10.88;8.02;;;8.30;99.90;;;;;;5050226;28;20518;-72
2022/03/14 04:19:44;;;;;;;10.18;7.63;;;8.30;99.90;;;;;;5049767;28;20544;-72
2022/03/14 04:22:10;;;;;;;10.02;8.63;;;8.30;99.90;;;;;;5049242;28;20054;-72
2022/03/14 04:24:36;;;;;;;10.27;7.80;;;8.20;99.90;;;;;;5049477;28;20053;-72
2022/03/14 04:27:04;;;;;;;10.90;8.32;;;8.20;99.90;;;;;;5049861;28;20075;-72
2022/03/14 04:29:29;;;;;;;11.60;8.45;;;8.20;99.90;;;;;;5050200;28;20044;-72
2022/03/14 04:31:55;;;;;;;10.07;7.50;;;8.20;99.90;;;;;;5049893;28;20411;-72
2022/03/14 04:34:21;;;;;;;9.50;6.95;;;8.20;99.90;;;;;;5049841;28;20088;-72
2022/03/14 04:36:50;;;;;;;9.00;7.03;;;8.20;99.90;;;;;;5048905;28;20048;-72
2022/03/14 04:39:17;;;;;;;11.52;7.63;;;8.10;99.90;;;;;;5049627;28;20063;-73
2022/03/14 04:41:43;;;;;;;8.45;6.95;;;8.10;99.90;;;;;;5049453;28;20218;-72
2022/03/14 04:44:08;;;;;;;9.25;6.97;;;8.10;99.90;;;;;;5049149;28;20114;-72
2022/03/14 04:46:34;;;;;;;9.07;7.07;;;8.10;99.90;;;;;;5044244;28;20484;-72
2022/03/14 04:49:01;;;;;;;8.50;6.65;;;8.10;99.90;;;;;;5040342;28;20402;-72
2022/03/14 04:51:26;;;;;;;13.65;6.60;;;8.10;99.90;;;;;;5039499;28;20085;-72
2022/03/14 04:53:52;;;;;;;8.43;6.93;;;8.00;99.90;;;;;;5029615;28;20069;-72
2022/03/14 04:56:17;;;;;;;7.90;6.40;;;8.10;99.90;;;;;;5031004;28;20128;-72
2022/03/14 04:58:43;;;;;;;6.70;5.45;;;8.00;99.90;;;;;;5038088;28;20045;-72
2022/03/14 05:01:08;;;;;;;9.55;6.90;;;8.00;99.90;;;;;;5048525;28;20080;-72
2022/03/14 05:03:35;;;;;;;7.45;6.15;;;8.00;99.90;;;;;;5042620;28;20040;-72
2022/03/14 05:06:00;;;;;;;7.15;5.95;;;8.00;99.90;;;;;;5040343;28;20060;-72
2022/03/14 05:08:26;;;;;;;9.35;6.30;;;8.00;99.90;;;;;;5049056;28;20064;-72
2022/03/14 05:10:52;;;;;;;9.90;6.97;;;8.00;99.90;;;;;;5038577;28;20037;-71
2022/03/14 05:13:17;;;;;;;7.18;6.28;;;8.00;99.90;;;;;;5046739;28;20037;-72
2022/03/14 05:15:43;;;;;;;8.20;6.40;;;8.00;99.90;;;;;;5030270;28;20049;-72
2022/03/14 05:18:09;;;;;;;7.20;5.70;;;8.00;99.90;;;;;;5029906;28;20041;-72
2022/03/14 05:20:37;;;;;;;8.40;6.10;;;8.00;99.90;;;;;;5041117;28;20052;-72
2022/03/14 05:23:03;;;;;;;7.68;6.25;;;8.00;99.90;;;;;;5045345;28;20049;-72
2022/03/14 05:25:30;;;;;;;8.00;5.65;;;8.00;99.90;;;;;;5036310;28;20058;-72
2022/03/14 05:27:57;;;;;;;7.70;5.50;;;8.00;99.90;;;;;;5043376;28;20048;-72
2022/03/14 05:30:23;;;;;;;6.72;5.65;;;8.00;99.90;;;;;;5033848;28;20048;-72
2022/03/14 05:32:49;;;;;;;6.57;5.05;;;8.00;99.90;;;;;;5028528;28;20400;-72
2022/03/14 05:35:15;;;;;;;7.22;5.75;;;8.00;99.90;;;;;;5030098;28;20044;-72
2022/03/14 05:37:42;;;;;;;6.65;5.25;;;8.10;99.90;;;;;;5033698;28;20051;-72
2022/03/14 05:40:08;;;;;;;6.53;5.78;;;8.00;99.90;;;;;;5039347;28;20060;-72
2022/03/14 05:42:34;;;;;;;7.55;5.07;;;8.10;99.90;;;;;;5042070;28;20379;-72
2022/03/14 05:45:00;;;;;;;6.03;5.47;;;8.10;99.90;;;;;;5031970;28;20090;-72
2022/03/14 05:47:25;;;;;;;5.75;4.93;;;8.10;99.90;;;;;;5032884;28;20098;-72
2022/03/14 05:49:51;;;;;;;6.68;4.82;;;8.10;99.90;;;;;;5050380;28;20083;-72
2022/03/14 05:52:17;;;;;;;7.55;5.65;;;8.10;99.90;;;;;;5050420;28;20037;-72
2022/03/14 05:54:42;;;;;;;10.65;5.10;;;8.10;99.90;;;;;;5048107;28;20497;-72
2022/03/14 05:57:08;;;;;;;5.63;4.60;;;8.10;99.90;;;;;;5050233;28;20048;-72
2022/03/14 05:59:34;;;;;;;5.55;4.82;;;8.10;99.90;;;;;;5036967;28;20045;-72
2022/03/14 06:01:59;;;;;;;5.28;4.78;;;8.10;99.90;;;;;;5048081;28;20403;-72
2022/03/14 06:04:26;;;;;;;5.05;4.40;;;8.10;99.90;;;;;;5032114;28;20115;-72
2022/03/14 06:06:51;;;;;;;6.05;4.43;;;8.10;99.90;;;;;;5028751;28;20081;-72
2022/03/14 06:09:17;;;;;;;7.80;4.55;;;8.10;99.90;;;;;;5033975;28;20091;-72
2022/03/14 06:11:42;;;;;;;5.82;4.70;;;8.10;99.90;;;;;;5049859;28;20056;-72
2022/03/14 06:14:08;;;;;;;6.32;4.72;;;8.10;99.90;;;;;;5052961;28;20124;-72
2022/03/14 06:16:34;;;;;;;5.00;4.50;;;8.10;99.90;;;;;;5051798;28;20076;-73
2022/03/14 06:19:00;;;;;;;6.35;4.35;;;8.10;99.90;;;;;;5044136;28;20087;-72
2022/03/14 06:21:25;;;;;;;5.57;4.78;;;8.10;99.90;;;;;;5048005;28;20777;-72
2022/03/14 06:23:51;;;;;;;5.20;4.63;;;8.10;99.90;;;;;;5033394;28;20065;-72
2022/03/14 06:26:17;;;;;;;5.07;3.90;;;8.10;99.90;;;;;;5033448;28;20049;-72
2022/03/14 06:28:43;;;;;;;5.78;4.60;;;8.10;99.90;;;;;;5047570;28;20511;-72
2022/03/14 06:31:10;;;;;;;4.38;3.97;;;8.10;99.90;;;;;;5049295;28;20499;-72
2022/03/14 06:33:37;;;;;;;5.47;4.30;;;8.20;99.90;;;;;;5035981;28;20045;-72
2022/03/14 06:36:03;;;;;;;4.57;3.85;;;8.20;99.90;;;;;;5033559;28;20742;-72
2022/03/14 06:38:29;;;;;;;4.80;3.85;;;8.20;99.90;;;;;;5041842;28;20206;-72
2022/03/14 06:40:56;;;;;;;4.22;3.83;;;8.20;99.90;;;;;;5051626;28;20528;-72
2022/03/14 06:43:24;;;;;;;4.10;3.70;;;8.20;99.90;;;;;;5050938;28;20487;-72
2022/03/14 06:45:50;;;;;;;5.43;3.10;;;8.20;99.90;;;;;;5051568;28;20057;-72
2022/03/14 06:48:16;;;;;;;7.68;3.95;;;8.20;99.90;;;;;;5052908;28;20048;-72
2022/03/14 06:50:41;;;;;;;5.18;4.00;;;8.20;99.90;;;;;;5050542;28;20041;-72
2022/03/14 06:53:08;;;;;;;4.55;3.83;;;8.20;99.90;;;;;;5051465;28;20044;-72
2022/03/14 06:55:33;;;;;;;4.13;3.72;;;8.20;99.90;;;;;;5051467;28;20048;-72
2022/03/14 06:57:59;;;;;;;4.63;4.10;;;8.20;99.90;;;;;;5052020;28;20125;-72
2022/03/14 07:00:27;;;;;;;4.32;3.92;;;8.30;99.90;;;;;;5047489;28;20156;-72
2022/03/14 07:02:53;;;;;;;4.63;4.22;;;8.30;99.90;;;;;;5034422;28;20045;-72
2022/03/14 07:05:20;;;;;;;5.40;4.90;;;8.30;99.90;;;;;;5031995;28;20450;-72
2022/03/14 07:07:47;;;;;;;3.90;3.50;;;8.30;99.90;;;;;;5040481;28;20080;-72
2022/03/14 07:10:14;;;;;;;4.82;3.28;;;8.30;99.90;;;;;;5037020;28;20698;-72
2022/03/14 07:12:46;;;;;;;3.83;3.47;;;8.30;99.90;;;;;;5038542;28;20407;-72
2022/03/14 07:15:13;;;;;;;;;;;8.40;99.90;;;;;;5035416;28;20107;-72
2022/03/14 07:17:39;;;;;;;4.55;3.67;;;8.40;99.90;;;;;;5056404;28;19971;-72
2022/03/14 07:20:05;;;;;;;5.85;3.60;;;8.40;99.90;;;;;;5033163;28;20040;-72
2022/03/14 07:22:35;;;;;;;5.25;3.63;;;8.40;99.90;;;;;;5041498;28;20057;-72
2022/03/14 07:25:02;;;;;;;4.43;3.80;;;8.40;99.90;;;;;;5032535;28;20065;-72
2022/03/14 07:27:27;;;;;;;4.93;3.70;;;8.40;99.90;;;;;;5039909;28;20095;-72
2022/03/14 07:29:53;;;;;;;4.50;4.10;;;8.40;99.90;;;;;;5039668;28;20041;-72
2022/03/14 07:32:19;;;;;;;5.28;4.40;;;8.40;99.90;;;;;;5048348;28;20122;-72
2022/03/14 07:34:45;;;;;;;4.65;4.20;;;8.50;99.90;;;;;;5050328;28;20083;-72
2022/03/14 07:37:10;;;;;;;6.10;4.05;;;8.50;99.90;;;;;;5052002;28;20137;-72
2022/03/14 07:39:36;;;;;;;3.97;3.58;;;8.50;99.90;;;;;;5048836;28;20052;-72
2022/03/14 07:42:01;;;;;;;4.88;4.30;;;8.50;99.90;;;;;;5031939;28;20502;-73
2022/03/14 07:44:27;;;;;;;5.10;3.80;;;8.50;99.90;;;;;;5030162;28;20547;-72
2022/03/14 07:46:52;;;;;;;4.35;3.95;;;8.60;99.90;;;;;;5033311;28;20099;-72
2022/03/14 07:49:20;;;;;;;4.72;4.30;;;8.60;99.90;;;;;;5044618;28;20080;-72
2022/03/14 07:51:45;;;;;;;4.10;3.67;;;8.60;99.90;;;;;;5043581;28;20056;-72
2022/03/14 07:54:11;;;;;;;4.68;3.90;;;8.60;99.90;;;;;;5034396;28;20045;-72
2022/03/14 07:56:37;;;;;;;3.90;3.40;;;8.70;99.90;;;;;;5032428;28;20980;-73
2022/03/14 07:59:03;;;;;;;5.20;4.40;;;8.70;99.90;;;;;;5037974;28;20971;-71
2022/03/14 08:01:29;;;;;;;5.22;3.92;;;8.70;99.90;;;;;;5034732;28;20136;-72
2022/03/14 08:03:54;;;;;;;4.55;3.90;;;8.70;99.90;;;;;;5037658;28;20137;-73
2022/03/14 08:06:22;;;;;;;4.00;3.60;;;8.80;99.90;;;;;;5031358;28;20049;-73
2022/03/14 08:08:50;;;;;;;10.82;4.18;;;8.80;99.90;;;;;;5030567;28;20416;-72
2022/03/14 08:11:16;;;;;;;5.00;4.50;;;8.90;99.90;;;;;;5031418;28;20060;-73
2022/03/14 08:13:42;;;;;;;4.55;3.97;;;8.90;99.90;;;;;;5030019;28;20088;-73
2022/03/14 08:16:08;;;;;;;4.03;3.70;;;8.90;99.90;;;;;;5033677;28;20084;-72
2022/03/14 08:18:33;;;;;;;4.93;4.28;;;8.90;99.90;;;;;;5031484;28;20159;-75
2022/03/14 08:20:59;;;;;;;4.72;4.18;;;9.00;99.90;;;;;;5033916;28;20048;-76
2022/03/14 08:23:25;;;;;;;5.15;4.65;;;9.00;99.90;;;;;;5033993;28;20049;-76
2022/03/14 08:25:51;;;;;;;5.15;4.57;;;9.00;99.90;;;;;;5031527;28;20057;-81
2022/03/14 08:28:17;;;;;;;4.47;4.07;;;9.00;99.90;;;;;;5030797;28;20095;-80
2022/03/14 08:30:44;;;;;;;4.88;4.35;;;9.00;99.90;;;;;;5031280;28;20431;-78
2022/03/14 08:33:10;;;;;;;5.68;5.18;;;9.00;99.90;;;;;;5031335;28;20087;-78
2022/03/14 08:35:36;;;;;;;5.65;5.05;;;9.10;99.90;;;;;;5038802;28;20046;-75
2022/03/14 08:38:01;;;;;;;5.97;4.13;;;9.10;99.90;;;;;;5034899;28;20056;-75
2022/03/14 08:40:28;;;;;;;5.32;4.45;;;9.10;99.90;;;;;;5031910;28;20052;-76
2022/03/14 08:42:55;;;;;;;4.72;4.30;;;9.10;99.90;;;;;;5030289;28;20057;-76
2022/03/14 08:45:23;;;;;;;4.78;4.28;;;9.10;99.90;;;;;;5031028;28;20116;-76
2022/03/14 08:47:49;;;;;;;5.97;4.38;;;9.10;99.90;;;;;;5030848;28;20111;-78
2022/03/14 08:50:16;;;;;;;6.90;5.22;;;9.10;99.90;;;;;;5030366;28;20041;-75
2022/03/14 08:52:42;;;;;;;10.68;5.65;;;9.10;99.90;;;;;;5035482;28;20085;-78
2022/03/14 08:55:08;;;;;;;6.78;5.28;;;9.10;99.90;;;;;;5042014;28;20072;-79
2022/03/14 08:57:33;;;;;;;6.75;6.05;;;9.20;99.90;;;;;;5033225;28;20088;-78
2022/03/14 08:59:59;;;;;;;6.95;6.28;;;9.20;99.90;;;;;;5035196;28;20037;-79
2022/03/14 09:02:25;;;;;;;6.38;5.55;;;9.20;99.90;;;;;;5037238;28;20571;-79
2022/03/14 09:04:50;;;;;;;6.38;5.78;;;9.30;99.90;;;;;;5034867;28;20048;-78
2022/03/14 09:07:27;;;;;;;5.85;5.15;;;9.30;99.90;;;;;;5035185;28;20037;-78
2022/03/14 09:09:54;;;;;;;5.82;4.93;;;9.40;99.90;;;;;;5029100;28;20038;-80
2022/03/14 09:12:20;;;;;;;5.28;4.47;;;9.50;99.90;;;;;;5028430;28;20064;-80
2022/03/14 09:14:46;;;;;;;5.43;4.88;;;9.50;99.90;;;;;;5030063;28;20088;-80
2022/03/14 09:17:12;;;;;;;6.05;5.55;;;9.50;99.90;;;;;;5029448;28;20065;-79
2022/03/14 09:19:38;;;;;;;6.50;4.82;;;9.50;99.90;;;;;;5038314;28;20124;-79
2022/03/14 09:22:08;;;;;;;5.80;5.15;;;9.50;99.90;;;;;;5029716;28;20569;-83
2022/03/14 09:24:36;;;;;;;6.65;6.00;;;9.50;99.90;;;;;;5029189;28;20058;-77
2022/03/14 09:27:05;;;;;;;5.65;5.15;;;9.50;99.90;;;;;;5040304;28;20056;-81
2022/03/14 09:29:31;;;;;;;7.93;6.10;;;9.50;99.90;;;;;;5034274;28;20128;-77
2022/03/14 09:31:57;;;;;;;6.65;6.00;;;9.40;99.90;;;;;;5040427;28;20643;-77
2022/03/14 09:34:23;;;;;;;7.60;6.90;;;9.40;99.90;;;;;;5049403;28;20037;-76
2022/03/14 09:36:48;;;;;;;10.00;8.73;;;9.50;99.90;;;;;;5042313;28;20057;-77
2022/03/14 09:39:14;;;;;;;11.70;10.50;;;9.40;99.90;;;;;;5035196;28;20037;-78
2022/03/14 09:41:41;;;;;;;14.13;11.50;;;9.40;99.90;;;;;;5048830;28;20044;-77
2022/03/14 09:44:09;;;;;;;13.52;11.52;;;9.40;99.90;;;;;;5050382;28;20045;-77
2022/03/14 09:46:38;;;;;;;14.68;12.38;;;9.40;99.90;;;;;;5044099;28;20052;-76
2022/03/14 09:49:08;;;;;;;17.42;13.43;;;9.40;99.90;;;;;;5033887;28;20037;-79
2022/03/14 09:51:35;;;;;;;17.17;14.90;;;9.40;99.90;;;;;;5032390;28;20099;-80
2022/03/14 09:54:01;;;;;;;18.92;15.45;;;9.30;99.90;;;;;;5040080;28;20087;-76
2022/03/14 09:56:26;;;;;;;20.75;16.80;;;9.30;99.90;;;;;;5046211;28;20076;-77
2022/03/14 09:58:52;;;;;;;20.55;17.67;;;9.30;99.90;;;;;;5052424;28;20416;-76
2022/03/14 10:01:18;;;;;;;19.52;16.52;;;9.20;99.90;;;;;;5053150;28;20079;-77
2022/03/14 10:03:44;;;;;;;22.08;16.90;;;9.20;99.90;;;;;;5053384;28;20495;-77
2022/03/14 10:06:09;;;;;;;17.45;13.60;;;9.20;99.90;;;;;;5046542;28;20049;-77
2022/03/14 10:08:35;;;;;;;14.82;11.52;;;9.10;99.90;;;;;;5031830;28;20060;-75
2022/03/14 10:11:01;;;;;;;14.75;11.48;;;9.10;99.90;;;;;;5051270;28;20095;-75
2022/03/14 10:13:26;;;;;;;15.48;12.48;;;9.00;99.90;;;;;;5052535;28;20121;-76
2022/03/14 10:15:53;;;;;;;15.15;11.13;;;9.00;99.90;;;;;;5049111;28;20442;-77
2022/03/14 10:18:18;;;;;;;16.20;11.90;;;9.00;99.90;;;;;;5033563;28;20446;-77
2022/03/14 10:20:56;;;;;;;14.82;10.85;;;9.00;99.90;;;;;;5031636;28;20061;-77
2022/03/14 10:23:32;;;;;;;14.90;10.23;;;9.00;99.90;;;;;;5032549;28;20092;-74
2022/03/14 10:25:58;;;;;;;16.85;10.60;;;9.00;99.90;;;;;;5032167;28;20062;-75
2022/03/14 10:28:30;;;;;;;17.10;10.07;;;9.10;99.90;;;;;;5032533;28;20454;-72
2022/03/14 10:30:59;;;;;;;;;;;9.10;99.90;;;;;;5032603;28;20041;-73
2022/03/14 10:33:25;;;;;;;15.85;9.15;;;9.10;99.90;;;;;;5033058;28;19925;-75
2022/03/14 10:35:55;;;;;;;17.40;9.15;;;9.10;99.90;;;;;;5045334;28;20110;-75
2022/03/14 10:38:21;;;;;;;18.52;9.30;;;9.20;99.90;;;;;;5051912;28;20111;-74
2022/03/14 10:40:47;;;;;;;16.63;9.25;;;9.30;99.90;;;;;;5052746;28;20063;-74
2022/03/14 10:43:35;;;;;;;21.38;10.63;;;9.30;99.90;;;;;;5051324;28;20544;-75
2022/03/14 10:46:04;;;;;;;18.50;8.80;;;9.30;99.90;;;;;;5045567;28;20056;-74
2022/03/14 10:48:38;;;;;;;16.98;9.25;;;9.30;99.90;;;;;;5039908;28;20057;-74
2022/03/14 10:51:06;;;;;;;18.40;9.73;;;9.40;99.90;;;;;;5052911;28;20123;-74
2022/03/14 10:53:34;;;;;;;17.55;8.65;;;9.40;99.90;;;;;;5052613;28;20392;-74
2022/03/14 10:56:00;;;;;;;21.67;9.68;;;9.40;99.90;;;;;;5052300;28;20053;-75
2022/03/14 10:58:33;;;;;;;14.57;8.60;;;9.40;99.90;;;;;;5039436;28;20502;-75
2022/03/14 11:01:00;;;;;;;;;;;9.40;99.90;;;;;;5050572;28;20080;-74
2022/03/14 11:03:47;;;;;;;17.52;7.53;;;9.50;99.90;;;;;;5050003;28;20399;-75
2022/03/14 11:06:17;;;;;;;13.18;6.75;;;9.50;99.90;;;;;;5052511;28;20045;-75
2022/03/14 11:08:48;;;;;;;15.25;7.57;;;9.40;99.90;;;;;;5049647;28;20048;-74
2022/03/14 11:11:15;;;;;;;20.48;7.97;;;9.50;99.90;;;;;;5032063;28;20121;-74
2022/03/14 11:13:46;;;;;;;13.68;7.90;;;9.50;99.90;;;;;;5030616;28;20061;-75
2022/03/14 11:16:25;;;;;;;16.55;8.00;;;9.50;99.90;;;;;;5031138;28;20046;-74
2022/03/14 11:18:52;;;;;;;16.38;8.70;;;9.60;99.90;;;;;;5031233;28;20114;-75
2022/03/14 11:21:20;;;;;;;18.95;7.97;;;9.60;99.90;;;;;;5043392;28;20053;-75
2022/03/14 11:23:48;;;;;;;15.18;7.88;;;9.60;99.90;;;;;;5032357;28;20063;-74
2022/03/14 11:26:19;;;;;;;10.70;7.07;;;9.60;99.90;;;;;;5030891;28;20527;-75
2022/03/14 11:28:47;;;;;;;15.20;6.32;;;9.60;99.90;;;;;;5030529;28;20456;-75
2022/03/14 11:31:13;;;;;;;13.82;5.95;;;9.70;99.90;;;;;;5036341;28;20077;-75
2022/03/14 11:33:41;;;;;;;8.82;5.78;;;9.70;99.90;;;;;;5037913;28;20041;-75
2022/03/14 11:36:07;;;;;;;10.30;5.78;;;9.70;99.90;;;;;;5039009;28;20048;-75
2022/03/14 11:38:33;;;;;;;10.50;5.72;;;9.70;99.90;;;;;;5039666;28;20041;-75
2022/03/14 11:41:00;;;;;;;11.10;5.68;;;9.70;99.90;;;;;;5041368;28;20395;-75
2022/03/14 11:43:27;;;;;;;14.95;6.28;;;9.70;99.90;;;;;;5040472;28;20045;-75
2022/03/14 11:45:54;;;;;;;11.93;5.93;;;9.70;99.90;;;;;;5040432;28;20055;-75
2022/03/14 11:48:21;;;;;;;10.55;5.75;;;9.70;99.90;;;;;;5044441;28;20044;-75
2022/03/14 11:50:48;;;;;;;12.05;6.53;;;9.70;99.90;;;;;;5044656;28;20045;-73
2022/03/14 11:53:19;;;;;;;9.50;6.05;;;9.80;99.90;;;;;;5048173;28;20041;-73
2022/03/14 11:56:04;;;;;;;8.68;6.15;;;9.80;99.90;;;;;;5048884;28;20500;-73
2022/03/14 11:58:40;;;;;;;10.95;6.47;;;9.80;99.90;;;;;;5050242;28;20037;-73
2022/03/14 12:01:26;;;;;;;14.50;7.43;;;9.80;99.90;;;;;;5050097;28;20120;-73
2022/03/14 12:03:57;;;;;;;13.15;6.50;;;9.80;99.90;;;;;;5041320;28;20057;-73
2022/03/14 12:06:47;;;;;;;17.65;6.85;;;9.80;99.90;;;;;;5035950;28;20562;-72
2022/03/14 12:09:25;;;;;;;11.07;6.05;;;9.80;99.90;;;;;;5049812;28;20049;-73
2022/03/14 12:11:54;;;;;;;19.08;7.53;;;9.80;99.90;;;;;;5043243;28;20128;-76
2022/03/14 12:14:46;;;;;;;11.90;7.00;;;9.80;99.90;;;;;;5030431;28;20056;-72
2022/03/14 12:17:15;;;;;;;20.02;8.00;;;9.80;99.90;;;;;;5034031;28;20128;-72
2022/03/14 12:19:44;;;;;;;18.95;8.85;;;9.90;99.90;;;;;;5045147;28;20041;-72
2022/03/14 12:22:42;;;;;;;17.27;9.02;;;9.90;99.90;;;;;;5040162;28;20103;-73
2022/03/14 12:25:32;;;;;;;14.15;9.23;;;9.90;99.90;;;;;;5032748;28;20118;-74
2022/03/14 12:28:29;;;;;;;17.85;10.55;;;10.00;99.90;;;;;;5049852;28;20052;-73
2022/03/14 12:31:14;;;;;;;23.70;11.63;;;10.20;99.90;;;;;;5040810;28;20045;-73
2022/03/14 12:33:44;;;;;;;23.73;12.20;;;10.20;99.90;;;;;;5042361;28;20041;-74
2022/03/14 12:36:19;;;;;;;17.15;10.73;;;10.30;99.90;;;;;;5044976;28;20049;-74
2022/03/14 12:39:11;;;;;;;21.95;11.60;;;10.50;99.90;;;;;;5031596;28;20089;-73
2022/03/14 12:41:38;;;;;;;26.52;10.40;;;10.60;99.90;;;;;;5049675;28;20518;-72
2022/03/14 12:44:27;;;;;;;21.75;10.40;;;10.70;99.90;;;;;;5039161;28;20086;-73
2022/03/14 12:46:56;;;;;;;18.95;10.35;;;10.70;99.90;;;;;;5031197;28;20151;-74
2022/03/14 12:49:48;;;;;;;25.50;10.73;;;10.70;99.90;;;;;;5031289;28;20038;-74